createdAt,value
2022-08-30T06:31:44.809Z,18.40
2022-08-30T06:34:13.176Z,18.60
2022-08-30T06:36:42.388Z,19.00
2022-08-30T06:39:13.614Z,19.70
2022-08-30T06:41:42.735Z,20.10
2022-08-30T06:44:14.525Z,20.60
2022-08-30T06:46:45.196Z,21.00
2022-08-30T06:49:14.363Z,21.30
2022-08-30T06:51:47.386Z,21.40
2022-08-30T06:54:22.803Z,21.70
2022-08-30T06:56:58.562Z,22.00
2022-08-30T06:59:28.760Z,22.40
2022-08-30T07:01:58.820Z,22.80
2022-08-30T07:04:31.682Z,23.00
2022-08-30T07:07:00.117Z,23.20
2022-08-30T07:09:28.261Z,23.80
2022-08-30T07:11:57.364Z,23.90
2022-08-30T07:14:25.410Z,23.80
2022-08-30T07:16:53.740Z,23.80
2022-08-30T07:19:22.978Z,24.10
2022-08-30T07:21:51.904Z,24.20
2022-08-30T07:24:23.245Z,24.80
2022-08-30T07:26:52.454Z,26.30
2022-08-30T07:29:24.492Z,27.20
2022-08-30T07:31:52.557Z,27.70
2022-08-30T07:34:23.392Z,28.90
2022-08-30T07:36:54.033Z,29.50
2022-08-30T07:39:22.325Z,30.40
2022-08-30T07:41:52.474Z,31.10
2022-08-30T07:44:20.556Z,30.60
2022-08-30T07:46:53.310Z,31.30
2022-08-30T07:49:22.883Z,31.80
2022-08-30T07:51:52.194Z,33.00
2022-08-30T07:54:20.343Z,33.60
2022-08-30T07:56:48.649Z,34.00
2022-08-30T07:59:16.720Z,33.70
2022-08-30T08:01:44.865Z,33.20
2022-08-30T08:04:13.436Z,34.80
2022-08-30T08:06:45.230Z,35.10
2022-08-30T08:09:13.338Z,34.10
2022-08-30T08:11:41.829Z,34.10
2022-08-30T08:14:10.764Z,33.50
2022-08-30T08:16:40.060Z,33.10
2022-08-30T08:19:09.445Z,33.20
2022-08-30T08:21:39.461Z,33.50
2022-08-30T08:24:09.505Z,33.60
2022-08-30T08:26:37.939Z,34.00
2022-08-30T08:29:13.405Z,33.60
2022-08-30T08:31:42.125Z,34.30
2022-08-30T08:34:11.687Z,33.30
2022-08-30T08:36:40.260Z,33.40
2022-08-30T08:39:11.032Z,33.50
2022-08-30T08:41:54.171Z,32.80
2022-08-30T08:44:35.555Z,33.20
2022-08-30T08:47:13.823Z,33.50
2022-08-30T08:49:45.880Z,34.10
2022-08-30T08:52:39.839Z,34.80
2022-08-30T08:55:13.515Z,35.00
2022-08-30T08:57:42.550Z,34.20
2022-08-30T09:00:13.830Z,34.80
2022-08-30T09:02:44.808Z,34.80
2022-08-30T09:05:18.541Z,34.70
2022-08-30T09:07:50.960Z,34.10
2022-08-30T09:10:40.375Z,34.10
2022-08-30T09:13:11.317Z,34.70
2022-08-30T09:15:42.936Z,35.30
2022-08-30T09:18:19.255Z,35.10
2022-08-30T09:20:51.566Z,35.30
2022-08-30T09:23:28.375Z,35.20
2022-08-30T09:26:00.480Z,35.20
2022-08-30T09:28:30.692Z,34.90
2022-08-30T09:31:03.778Z,34.90
2022-08-30T09:33:33.524Z,35.20
2022-08-30T09:36:20.339Z,35.80
2022-08-30T09:38:59.892Z,36.10
2022-08-30T09:41:35.391Z,36.50
2022-08-30T09:44:10.893Z,36.20
2022-08-30T09:46:47.540Z,35.10
2022-08-30T09:49:34.521Z,35.20
2022-08-30T09:52:13.889Z,35.20
2022-08-30T09:55:03.384Z,35.50
2022-08-30T09:57:39.101Z,35.20
2022-08-30T10:00:13.443Z,35.40
2022-08-30T10:03:05.453Z,35.50
2022-08-30T10:05:42.136Z,34.80
2022-08-30T10:08:21.207Z,34.70
2022-08-30T10:10:58.151Z,35.30
2022-08-30T10:14:05.660Z,35.10
2022-08-30T10:16:46.695Z,34.60
2022-08-30T10:19:24.527Z,34.90
2022-08-30T10:22:00.156Z,35.10
2022-08-30T10:27:26.485Z,34.50
2022-08-30T10:30:00.420Z,35.00
2022-08-30T10:32:35.568Z,35.00
2022-08-30T10:35:09.044Z,34.60
2022-08-30T10:37:44.785Z,34.70
2022-08-30T10:40:34.386Z,34.20
2022-08-30T10:43:09.871Z,34.70
2022-08-30T10:45:41.570Z,35.00
2022-08-30T10:48:19.493Z,34.90
2022-08-30T10:50:53.574Z,34.20
2022-08-30T10:53:30.606Z,33.80
2022-08-30T10:56:03.976Z,33.80
2022-08-30T10:58:41.391Z,34.10
2022-08-30T11:01:26.729Z,34.30
2022-08-30T11:04:36.525Z,34.90
2022-08-30T11:07:17.250Z,34.80
2022-08-30T11:10:15.587Z,33.60
2022-08-30T11:12:55.343Z,33.50
2022-08-30T11:15:27.666Z,33.40
2022-08-30T11:18:00.559Z,33.20
2022-08-30T11:20:40.104Z,32.70
2022-08-30T11:23:32.879Z,32.50
2022-08-30T11:26:04.373Z,32.30
2022-08-30T11:29:05.536Z,31.90
2022-08-30T11:31:39.544Z,31.40
2022-08-30T11:34:09.755Z,30.70
2022-08-30T11:37:10.520Z,30.40
2022-08-30T11:40:02.077Z,30.00
2022-08-30T11:42:36.793Z,29.50
2022-08-30T11:45:42.586Z,29.40
2022-08-30T11:48:55.965Z,29.30
2022-08-30T11:52:26.379Z,29.00
2022-08-30T11:54:57.537Z,29.10
2022-08-30T11:57:32.645Z,29.10
2022-08-30T12:00:11.172Z,29.40
2022-08-30T12:02:56.791Z,29.60
2022-08-30T12:05:51.802Z,29.90
2022-08-30T12:08:55.211Z,29.80
2022-08-30T12:12:01.066Z,30.00
2022-08-30T12:14:41.278Z,30.00
2022-08-30T12:17:36.399Z,29.30
2022-08-30T12:20:06.704Z,29.10
2022-08-30T12:22:37.808Z,29.20
2022-08-30T12:25:18.070Z,29.20
2022-08-30T12:27:46.633Z,29.40
2022-08-30T12:30:27.965Z,29.50
2022-08-30T12:32:58.617Z,29.60
2022-08-30T12:35:29.236Z,29.60
2022-08-30T12:38:02.088Z,29.60
2022-08-30T12:40:34.861Z,29.70
2022-08-30T12:43:05.680Z,29.90
2022-08-30T12:45:43.063Z,29.90
2022-08-30T12:48:15.810Z,29.30
2022-08-30T12:50:52.039Z,28.80
2022-08-30T12:53:27.955Z,29.20
2022-08-30T12:56:00.387Z,29.40
2022-08-30T12:58:44.161Z,29.60
2022-08-30T13:01:19.341Z,29.30
2022-08-30T13:04:02.254Z,29.30
2022-08-30T13:06:52.847Z,29.40
2022-08-30T13:09:32.435Z,29.40
2022-08-30T13:12:02.771Z,29.40
2022-08-30T13:14:34.744Z,29.00
2022-08-30T13:17:28.583Z,28.60
2022-08-30T13:20:06.728Z,28.60
2022-08-30T13:22:36.630Z,28.40
2022-08-30T13:25:06.040Z,28.50
2022-08-30T13:27:37.096Z,28.40
2022-08-30T13:30:13.396Z,28.70
2022-08-30T13:32:44.309Z,28.90
2022-08-30T13:35:13.876Z,28.90
2022-08-30T13:37:49.787Z,28.80
2022-08-30T13:40:21.259Z,28.80
2022-08-30T13:42:50.390Z,28.20
2022-08-30T13:48:11.833Z,27.80
2022-08-30T13:50:40.512Z,27.60
2022-08-30T13:53:09.231Z,27.50
2022-08-30T13:55:37.849Z,27.40
2022-08-30T13:58:06.140Z,27.40
2022-08-30T14:00:37.637Z,27.60
2022-08-30T14:03:06.536Z,27.50
2022-08-30T14:05:49.491Z,27.30
2022-08-30T14:11:12.667Z,26.90
2022-08-30T14:16:32.339Z,26.40
2022-08-30T14:19:01.963Z,26.60
2022-08-30T14:21:31.499Z,26.70
2022-08-30T14:24:03.836Z,26.90
2022-08-30T14:26:38.778Z,26.90
2022-08-30T14:29:10.548Z,26.70
2022-08-30T14:31:39.753Z,26.40
2022-08-30T14:34:09.755Z,26.50
2022-08-30T14:36:43.870Z,26.60
2022-08-30T14:39:14.526Z,26.90
2022-08-30T14:41:45.408Z,27.10
2022-08-30T14:44:15.279Z,27.30
2022-08-30T14:46:44.093Z,27.50
2022-08-30T14:49:12.746Z,27.60
2022-08-30T14:51:42.854Z,27.60
2022-08-30T14:54:11.363Z,27.80
2022-08-30T14:56:40.967Z,27.70
2022-08-30T14:59:09.671Z,27.70
2022-08-30T15:01:41.317Z,27.50
2022-08-30T15:04:10.506Z,27.10
2022-08-30T15:06:42.534Z,27.00
2022-08-30T15:09:15.136Z,27.20
2022-08-30T15:11:44.549Z,27.30
2022-08-30T15:14:16.306Z,27.50
2022-08-30T15:16:45.549Z,27.50
2022-08-30T15:19:14.504Z,27.50
2022-08-30T15:21:46.518Z,27.30
2022-08-30T15:24:19.452Z,27.30
2022-08-30T15:26:53.463Z,27.30
2022-08-30T15:29:23.232Z,27.30
2022-08-30T15:31:52.159Z,27.40
2022-08-30T15:34:27.885Z,27.30
2022-08-30T15:36:59.174Z,27.20
2022-08-30T15:39:27.650Z,27.20
2022-08-30T15:42:01.169Z,27.10
2022-08-30T15:44:30.092Z,27.00
2022-08-30T15:46:58.440Z,26.80
2022-08-30T15:49:27.099Z,26.80
2022-08-30T15:52:00.940Z,26.70
2022-08-30T15:54:29.700Z,26.80
2022-08-30T15:57:00.044Z,26.60
2022-08-30T15:59:28.574Z,26.60
2022-08-30T16:01:57.281Z,26.50
2022-08-30T16:04:26.069Z,26.40
2022-08-30T16:06:54.874Z,26.40
2022-08-30T16:09:26.561Z,26.40
2022-08-30T16:12:02.253Z,26.40
2022-08-30T16:14:33.128Z,26.30
2022-08-30T16:17:01.673Z,26.10
2022-08-30T16:19:30.077Z,26.00
2022-08-30T16:21:58.764Z,26.00
2022-08-30T16:24:28.473Z,25.90
2022-08-30T16:26:56.623Z,25.70
2022-08-30T16:29:24.673Z,25.60
2022-08-30T16:31:55.509Z,25.60
2022-08-30T16:34:23.635Z,25.50
2022-08-30T16:36:54.351Z,25.40
2022-08-30T16:39:22.436Z,25.30
2022-08-30T16:41:52.636Z,25.20
2022-08-30T16:44:20.902Z,25.20
2022-08-30T16:46:53.238Z,25.10
2022-08-30T16:49:25.359Z,25.10
2022-08-30T16:51:57.876Z,24.90
2022-08-30T16:54:26.509Z,24.80
2022-08-30T16:56:56.252Z,24.70
2022-08-30T16:59:25.451Z,24.60
2022-08-30T17:01:53.656Z,24.40
2022-08-30T17:04:22.947Z,24.30
2022-08-30T17:06:51.592Z,24.20
2022-08-30T17:09:20.861Z,24.00
2022-08-30T17:11:50.967Z,23.90
2022-08-30T17:14:28.111Z,23.80
2022-08-30T17:16:58.139Z,23.80
2022-08-30T17:19:28.900Z,23.60
2022-08-30T17:21:58.484Z,23.50
2022-08-30T17:24:27.148Z,23.50
2022-08-30T17:26:55.637Z,23.40
2022-08-30T17:29:25.197Z,23.40
2022-08-30T17:31:54.088Z,23.20
2022-08-30T17:34:23.329Z,23.10
2022-08-30T17:36:57.144Z,23.10
2022-08-30T17:39:25.790Z,22.90
2022-08-30T17:41:54.206Z,22.80
2022-08-30T17:44:28.764Z,22.70
2022-08-30T17:46:59.970Z,22.50
2022-08-30T17:49:28.786Z,22.40
2022-08-30T17:51:58.668Z,22.30
2022-08-30T17:54:27.587Z,22.10
2022-08-30T17:56:56.444Z,22.00
2022-08-30T17:59:26.623Z,21.80
2022-08-30T18:01:57.582Z,21.70
2022-08-30T18:04:27.580Z,21.60
2022-08-30T18:06:56.342Z,21.40
2022-08-30T18:09:24.752Z,21.30
2022-08-30T18:11:56.328Z,21.20
2022-08-30T18:14:25.976Z,21.10
2022-08-30T18:16:54.949Z,21.10
2022-08-30T18:19:24.303Z,21.00
2022-08-30T18:21:56.262Z,20.90
2022-08-30T18:24:25.210Z,20.80
2022-08-30T18:26:54.639Z,20.70
2022-08-30T18:29:30.141Z,20.70
2022-08-30T18:32:02.984Z,20.60
2022-08-30T18:34:31.643Z,20.50
2022-08-30T18:36:59.767Z,20.40
2022-08-30T18:39:34.234Z,20.30
2022-08-30T18:42:04.206Z,20.20
2022-08-30T18:47:23.012Z,20.10
2022-08-30T18:49:53.359Z,20.10
2022-08-30T18:52:22.496Z,20.00
2022-08-30T18:54:52.774Z,19.90
2022-08-30T18:57:21.504Z,19.80
2022-08-30T18:59:50.979Z,19.80
2022-08-30T19:02:19.296Z,19.70
2022-08-30T19:04:49.332Z,19.60
2022-08-30T19:07:20.167Z,19.60
2022-08-30T19:09:48.834Z,19.60
2022-08-30T19:12:17.026Z,19.50
2022-08-30T19:14:46.002Z,19.50
2022-08-30T19:17:14.655Z,19.40
2022-08-30T19:19:46.199Z,19.40
2022-08-30T19:22:19.115Z,19.30
2022-08-30T19:24:47.910Z,19.30
2022-08-30T19:27:21.312Z,19.30
2022-08-30T19:29:53.965Z,19.20
2022-08-30T19:32:22.210Z,19.20
2022-08-30T19:34:50.803Z,19.20
2022-08-30T19:37:20.773Z,19.10
2022-08-30T19:39:49.250Z,19.10
2022-08-30T19:42:17.575Z,19.00
2022-08-30T19:44:45.775Z,18.90
2022-08-30T19:47:14.334Z,18.90
2022-08-30T19:49:43.219Z,18.80
2022-08-30T19:52:11.588Z,18.70
2022-08-30T19:54:42.434Z,18.70
2022-08-30T19:57:11.814Z,18.60
2022-08-30T19:59:42.391Z,18.60
2022-08-30T20:02:10.999Z,18.50
2022-08-30T20:04:42.616Z,18.50
2022-08-30T20:07:10.816Z,18.40
2022-08-30T20:09:39.273Z,18.40
2022-08-30T20:12:10.122Z,18.30
2022-08-30T20:14:38.251Z,18.30
2022-08-30T20:17:06.414Z,18.30
2022-08-30T20:19:40.128Z,18.30
2022-08-30T20:22:08.537Z,18.30
2022-08-30T20:24:29.367Z,20.20
2022-08-30T20:24:38.308Z,18.20
2022-08-30T20:27:09.150Z,18.20
2022-08-30T20:29:38.079Z,18.10
2022-08-30T20:32:06.354Z,18.00
2022-08-30T20:34:34.433Z,18.00
2022-08-30T20:37:03.812Z,18.00
2022-08-30T20:39:33.201Z,18.00
2022-08-30T20:42:01.294Z,17.90
2022-08-30T20:44:30.952Z,17.90
2022-08-30T20:46:59.147Z,17.80
2022-08-30T20:49:28.467Z,17.80
2022-08-30T20:51:56.655Z,17.80
2022-08-30T20:54:24.992Z,17.80
2022-08-30T20:56:53.263Z,17.70
2022-08-30T20:59:21.336Z,17.70
2022-08-30T21:01:51.431Z,17.60
2022-08-30T21:04:19.679Z,17.60
2022-08-30T21:06:47.768Z,17.60
2022-08-30T21:09:16.240Z,17.50
2022-08-30T21:11:44.947Z,17.40
2022-08-30T21:14:13.907Z,17.40
2022-08-30T21:16:42.214Z,17.30
2022-08-30T21:19:11.669Z,17.30
2022-08-30T21:21:39.948Z,17.30
2022-08-30T21:24:10.147Z,17.20
2022-08-30T21:26:40.186Z,17.20
2022-08-30T21:29:08.949Z,17.10
2022-08-30T21:31:38.870Z,17.10
2022-08-30T21:34:07.604Z,17.00
2022-08-30T21:36:46.547Z,17.00
2022-08-30T21:39:18.193Z,17.00
2022-08-30T21:41:47.121Z,16.90
2022-08-30T21:44:17.218Z,16.90
2022-08-30T21:46:46.932Z,16.90
2022-08-30T21:49:17.810Z,16.90
2022-08-30T21:51:49.298Z,16.90
2022-08-30T21:54:18.462Z,16.90
2022-08-30T21:56:48.786Z,16.80
2022-08-30T21:59:18.327Z,16.80
2022-08-30T22:01:47.089Z,16.70
2022-08-30T22:04:16.196Z,16.70
2022-08-30T22:06:50.839Z,16.70
2022-08-30T22:09:21.702Z,16.70
2022-08-30T22:11:50.954Z,16.60
2022-08-30T22:14:20.944Z,16.70
2022-08-30T22:16:49.293Z,16.60
2022-08-30T22:19:22.927Z,16.60
2022-08-30T22:21:53.906Z,16.60
2022-08-30T22:24:31.913Z,16.60
2022-08-30T22:27:01.570Z,16.60
2022-08-30T22:29:30.260Z,16.60
2022-08-30T22:31:58.577Z,16.60
2022-08-30T22:34:26.811Z,16.60
2022-08-30T22:36:56.244Z,16.50
2022-08-30T22:39:24.389Z,16.60
2022-08-30T22:41:52.846Z,16.50
2022-08-30T22:44:20.894Z,16.50
2022-08-30T22:46:48.992Z,16.40
2022-08-30T22:49:17.207Z,16.40
2022-08-30T22:51:45.467Z,16.40
2022-08-30T22:54:15.603Z,16.30
2022-08-30T22:56:45.406Z,16.30
2022-08-30T22:59:13.812Z,16.30
2022-08-30T23:01:43.903Z,16.30
2022-08-30T23:04:13.824Z,16.20
2022-08-30T23:06:49.947Z,16.20
2022-08-30T23:09:20.058Z,16.20
2022-08-30T23:11:48.300Z,16.20
2022-08-30T23:14:16.381Z,16.10
2022-08-30T23:16:45.288Z,16.10
2022-08-30T23:19:13.755Z,16.10
2022-08-30T23:21:41.836Z,16.00
2022-08-30T23:24:27.675Z,16.00
2022-08-30T23:27:15.041Z,16.00
2022-08-30T23:30:00.719Z,16.00
2022-08-30T23:32:46.254Z,16.00
2022-08-30T23:35:32.665Z,15.90
2022-08-30T23:38:21.598Z,15.90
2022-08-30T23:41:07.523Z,15.90
2022-08-30T23:43:55.703Z,15.80
2022-08-30T23:46:41.494Z,15.70
2022-08-30T23:49:27.615Z,15.70
2022-08-30T23:52:13.201Z,15.70
2022-08-30T23:54:58.612Z,15.60
2022-08-30T23:57:45.099Z,15.60
